Time;durP1;ratioP1;P1;durP2;ratioP2;P2;SDS_P1;SDS_P2;PMS_P1;PMS_P2;Temp;Humidity;BMP_temperature;BMP_pressure;BME280_temperature;BME280_humidity;BME280_pressure;Samples;Min_cycle;Max_cycle;Signal;HPM_P1;HPM_P2
2022/07/27 00:00:59;;;;;;;66.00;62.10;;;;;;;16.97;100.00;102073.59;2000150;71;30821;-77
2022/07/27 00:06:43;;;;;;;63.33;59.33;;;;;;;16.86;100.00;102074.84;1991512;71;30797;-77
2022/07/27 00:12:27;;;;;;;68.27;64.13;;;;;;;16.83;100.00;102075.70;2013377;71;30875;-75
2022/07/27 00:18:12;;;;;;;66.17;62.07;;;;;;;16.70;100.00;102073.59;2011476;71;30862;-78
2022/07/27 00:23:59;;;;;;;66.73;62.63;;;;;;;16.58;100.00;102065.31;2011860;71;30922;-76
2022/07/27 00:29:44;;;;;;;62.50;58.60;;;;;;;16.71;100.00;102066.86;2013213;71;30869;-75
2022/07/27 00:35:29;;;;;;;64.30;60.20;;;;;;;16.63;100.00;102068.91;2014947;70;33452;-75
2022/07/27 00:41:15;;;;;;;65.67;61.67;;;;;;;16.72;100.00;102067.70;2014966;71;30937;-77
2022/07/27 00:47:07;;;;;;;65.43;61.43;;;;;;;16.72;100.00;102062.92;2007670;71;33391;-77
2022/07/27 00:52:52;;;;;;;64.57;60.53;;;;;;;16.64;100.00;102071.99;1999095;71;33333;-77
2022/07/27 00:58:41;;;;;;;66.33;62.13;;;;;;;16.69;100.00;102067.70;2004229;71;30865;-78
2022/07/27 01:04:27;;;;;;;66.50;62.40;;;;;;;16.93;100.00;102073.35;2006596;71;30813;-77
2022/07/27 01:10:16;;;;;;;73.70;69.30;;;;;;;17.05;100.00;102070.95;2009840;71;30890;-76
2022/07/27 01:16:03;;;;;;;69.17;65.10;;;;;;;17.06;100.00;102068.98;2013176;71;33043;-75
2022/07/27 01:21:48;;;;;;;73.20;68.80;;;;;;;17.00;100.00;102063.99;2009790;71;31392;-77
2022/07/27 01:27:33;;;;;;;70.00;65.70;;;;;;;16.91;100.00;102061.57;2015085;71;30888;-75
2022/07/27 01:33:24;;;;;;;73.43;69.23;;;;;;;16.83;100.00;102052.41;2001112;71;32804;-77
2022/07/27 01:39:12;;;;;;;69.50;65.30;;;;;;;16.75;100.00;102053.91;2016999;71;33326;-77
2022/07/27 01:44:58;;;;;;;66.33;62.00;;;;;;;16.85;100.00;102054.36;2016843;71;30881;-77
2022/07/27 01:50:43;;;;;;;66.93;62.90;;;;;;;16.85;100.00;102044.55;2007877;71;30875;-76
2022/07/27 01:56:28;;;;;;;67.60;63.57;;;;;;;16.94;100.00;102048.37;2002606;71;30834;-77
2022/07/27 02:02:15;;;;;;;65.60;61.80;;;;;;;16.82;100.00;102048.76;2000850;71;33335;-77
2022/07/27 02:07:59;;;;;;;65.03;61.33;;;;;;;16.72;100.00;102046.66;2002707;71;32847;-77
2022/07/27 02:13:46;;;;;;;68.17;64.37;;;;;;;16.58;100.00;102045.67;2003864;71;30897;-77
2022/07/27 02:19:31;;;;;;;66.30;62.57;;;;;;;16.54;100.00;102045.97;2016786;71;33364;-77
2022/07/27 02:25:17;;;;;;;67.43;63.67;;;;;;;16.58;100.00;102039.50;2014931;71;32840;-78
2022/07/27 02:31:03;;;;;;;67.20;63.30;;;;;;;16.36;100.00;102041.93;1994896;71;30913;-77
2022/07/27 02:36:48;;;;;;;66.00;62.23;;;;;;;16.33;100.00;102043.94;2014874;71;33330;-75
2022/07/27 02:42:33;;;;;;;65.30;61.60;;;;;;;16.21;100.00;102037.32;1998956;71;30959;-75
2022/07/27 02:48:18;;;;;;;63.83;60.13;;;;;;;16.07;100.00;102034.91;2000511;71;32804;-75
2022/07/27 02:54:04;;;;;;;65.70;61.90;;;;;;;15.85;100.00;102036.77;2009906;71;31351;-77
2022/07/27 02:59:48;;;;;;;66.23;62.53;;;;;;;15.88;100.00;102030.58;2005998;71;30880;-76
2022/07/27 03:05:33;;;;;;;64.23;60.43;;;;;;;15.74;100.00;102024.54;1995362;71;31330;-75
2022/07/27 03:11:19;;;;;;;63.63;59.90;;;;;;;15.52;100.00;102026.92;2009968;71;32755;-76
2022/07/27 03:17:03;;;;;;;66.43;62.47;;;;;;;15.63;100.00;102036.36;2014968;71;31373;-74
2022/07/27 03:22:53;;;;;;;65.27;61.23;;;;;;;15.49;100.00;102034.73;1995593;71;32823;-77
2022/07/27 03:28:37;;;;;;;64.90;61.17;;;;;;;15.34;100.00;102036.23;2009504;71;32824;-76
2022/07/27 03:34:22;;;;;;;64.47;60.50;;;;;;;15.29;100.00;102036.26;1997159;71;32835;-77
2022/07/27 03:40:12;;;;;;;67.07;62.97;;;;;;;15.48;100.00;102041.48;1929708;73;33456;-83
2022/07/27 03:45:57;;;;;;;64.47;60.40;;;;;;;15.44;100.00;102037.59;2016656;71;33340;-77
2022/07/27 03:51:42;;;;;;;67.03;63.03;;;;;;;15.55;100.00;102031.94;2000974;71;32828;-76
2022/07/27 03:57:26;;;;;;;64.87;60.87;;;;;;;15.35;100.00;102044.08;2004402;71;32847;-77
2022/07/27 04:03:11;;;;;;;67.03;63.03;;;;;;;15.32;100.00;102037.07;1974131;72;31022;-76
2022/07/27 04:08:55;;;;;;;65.70;61.60;;;;;;;15.31;100.00;102037.37;2010114;71;32749;-76
2022/07/27 04:14:40;;;;;;;66.50;62.30;;;;;;;15.28;100.00;102041.58;2009588;71;32935;-76
2022/07/27 04:20:25;;;;;;;68.07;64.07;;;;;;;15.27;100.00;102041.33;2009478;71;33446;-75
2022/07/27 04:26:10;;;;;;;65.70;61.50;;;;;;;15.29;100.00;102041.86;1991735;71;33369;-75
2022/07/27 04:31:58;;;;;;;64.50;60.17;;;;;;;15.44;100.00;102038.15;2010000;71;33236;-76
2022/07/27 04:37:43;;;;;;;65.03;60.73;;;;;;;15.37;100.00;102037.05;2004498;71;32738;-76
2022/07/27 04:43:30;;;;;;;62.90;58.70;;;;;;;15.31;100.00;102045.22;2007797;71;32861;-75
2022/07/27 04:49:18;;;;;;;61.30;57.03;;;;;;;15.14;100.00;102048.94;2008130;71;33272;-75
2022/07/27 04:55:07;;;;;;;63.33;58.97;;;;;;;15.19;100.00;102055.08;2016854;71;32801;-76
2022/07/27 05:00:54;;;;;;;63.80;59.70;;;;;;;15.24;100.00;102053.63;2013464;71;32825;-77
2022/07/27 05:06:39;;;;;;;63.47;59.37;;;;;;;15.18;100.00;102060.40;1997413;71;32812;-77
2022/07/27 05:12:24;;;;;;;62.60;58.47;;;;;;;15.22;100.00;102059.54;1995133;71;32805;-75
2022/07/27 05:18:09;;;;;;;59.13;54.97;;;;;;;15.28;100.00;102061.17;2015039;71;32786;-77
2022/07/27 05:23:54;;;;;;;61.00;56.93;;;;;;;15.27;100.00;102060.92;2009613;71;32817;-75
2022/07/27 05:29:39;;;;;;;64.77;60.33;;;;;;;15.48;100.00;102061.09;2007499;71;32944;-77
2022/07/27 05:35:25;;;;;;;62.73;58.40;;;;;;;15.58;100.00;102069.16;2014951;71;33380;-76
2022/07/27 05:41:11;;;;;;;63.73;59.43;;;;;;;15.55;100.00;102072.55;2016999;71;30851;-75
2022/07/27 05:46:56;;;;;;;62.10;57.63;;;;;;;15.40;100.00;102072.05;2018699;71;33375;-75
2022/07/27 05:52:42;;;;;;;65.43;60.93;;;;;;;15.61;100.00;102068.61;2013231;71;32868;-75
2022/07/27 05:58:27;;;;;;;63.77;59.47;;;;;;;15.92;100.00;102070.89;2009658;71;32820;-77
2022/07/27 06:04:10;;;;;;;62.23;57.60;;;;;;;16.15;100.00;102069.32;2005749;71;32862;-76
2022/07/27 06:09:56;;;;;;;67.60;63.33;;;;;;;16.56;100.00;102062.75;1998891;71;33369;-76
2022/07/27 06:15:41;;;;;;;70.93;66.77;;;;;;;16.87;100.00;102064.70;2009526;71;30881;-75
2022/07/27 06:21:27;;;;;;;68.07;64.17;;;;;;;16.82;100.00;102066.16;2009507;71;32793;-75
2022/07/27 06:27:12;;;;;;;63.87;60.07;;;;;;;16.81;100.00;102076.55;2016892;71;30872;-76
2022/07/27 06:32:59;;;;;;;66.10;62.20;;;;;;;16.96;100.00;102079.77;2008121;71;30821;-75
2022/07/27 06:38:43;;;;;;;64.87;61.07;;;;;;;17.21;100.00;102074.41;2007806;71;30879;-76
2022/07/27 06:44:30;;;;;;;60.93;57.23;;;;;;;17.15;100.00;102079.27;2004685;71;31330;-75
2022/07/27 06:50:15;;;;;;;61.00;57.60;;;;;;;17.33;100.00;102070.59;2004388;71;30893;-76
2022/07/27 06:56:02;;;;;;;60.50;57.07;;;;;;;17.57;100.00;102068.59;2006056;71;31062;-74
2022/07/27 07:01:47;;;;;;;56.00;53.10;;;;;;;17.97;100.00;102070.56;2004170;71;31352;-77
2022/07/27 07:07:32;;;;;;;52.10;49.10;;;;;;;17.99;100.00;102064.88;2015018;71;30949;-75
2022/07/27 07:13:17;;;;;;;50.37;47.57;;;;;;;18.09;100.00;102072.33;2010124;71;31322;-74
2022/07/27 07:19:01;;;;;;;49.10;46.20;;;;;;;18.20;100.00;102078.88;2008082;71;30904;-75
2022/07/27 07:24:46;;;;;;;49.80;47.00;;;;;;;18.39;100.00;102077.44;2011584;71;30990;-77
2022/07/27 07:30:37;;;;;;;46.27;43.67;;;;;;;18.70;100.00;102074.91;2004569;71;30843;-75
2022/07/27 07:36:22;;;;;;;45.67;42.97;;;;;;;19.03;100.00;102086.39;1998779;71;31386;-75
2022/07/27 07:42:07;;;;;;;41.27;38.87;;;;;;;19.41;100.00;102089.81;2004148;71;30927;-75
2022/07/27 07:47:53;;;;;;;41.17;38.97;;;;;;;19.43;100.00;102083.31;2011470;71;33304;-74
2022/07/27 07:53:38;;;;;;;39.80;37.43;;;;;;;19.63;100.00;102087.67;2009715;71;30956;-74
2022/07/27 07:59:23;;;;;;;40.00;37.90;;;;;;;19.40;100.00;102099.41;2000180;71;30871;-74
2022/07/27 08:05:10;;;;;;;40.07;37.87;;;;;;;19.62;100.00;102100.67;1998719;71;30963;-75
2022/07/27 08:10:55;;;;;;;38.03;35.93;;;;;;;19.94;100.00;102102.72;2018653;71;30997;-74
2022/07/27 08:16:41;;;;;;;38.50;36.20;;;;;;;19.73;100.00;102100.69;2009410;71;30859;-74
2022/07/27 08:22:26;;;;;;;37.57;35.40;;;;;;;19.78;100.00;102104.23;2014936;71;30915;-75
2022/07/27 08:28:10;;;;;;;36.40;34.20;;;;;;;19.93;100.00;102105.30;2017024;71;30873;-74
2022/07/27 08:33:55;;;;;;;37.73;35.53;;;;;;;20.42;100.00;102095.09;1947026;72;31575;-74
2022/07/27 08:39:39;;;;;;;34.17;32.00;;;;;;;20.56;100.00;102085.97;2002752;71;30798;-73
2022/07/27 08:45:25;;;;;;;31.07;29.30;;;;;;;21.04;100.00;102077.59;2004442;71;30915;-74
2022/07/27 08:51:10;;;;;;;29.23;27.63;;;;;;;21.19;100.00;102079.16;2016935;71;31425;-75
2022/07/27 08:56:54;;;;;;;28.47;26.70;;;;;;;21.40;100.00;102080.79;2016841;71;31506;-75
2022/07/27 09:02:41;;;;;;;28.73;26.70;;;;;;;21.40;100.00;102078.80;1967009;72;31375;-74
2022/07/27 09:08:27;;;;;;;28.55;26.85;;;;;;;21.09;100.00;102076.03;2002475;71;30887;-76
2022/07/27 09:14:13;;;;;;;29.17;27.57;;;;;;;21.23;100.00;102071.68;2009687;71;30880;-74
2022/07/27 09:19:59;;;;;;;22.07;20.77;;;;;;;21.55;100.00;102071.86;2008253;71;30986;-73
2022/07/27 09:26:15;;;;;;;21.30;19.98;;;;;;;21.63;100.00;102072.45;1998610;71;31508;-73
2022/07/27 09:31:59;;;;;;;20.12;19.02;;;;;;;21.50;100.00;102072.84;1987880;71;30991;-74
2022/07/27 09:37:44;;;;;;;19.30;18.12;;;;;;;21.35;100.00;102068.48;2015032;71;31447;-74
2022/07/27 09:43:32;;;;;;;19.70;18.70;;;;;;;20.93;100.00;102063.48;2011354;71;31517;-74
2022/07/27 09:49:33;;;;;;;19.50;18.50;;;;;;;21.22;100.00;102067.22;2017030;71;30937;-74
2022/07/27 09:55:22;;;;;;;20.23;19.03;;;;;;;20.92;100.00;102065.23;2004163;71;30935;-73
2022/07/27 10:01:07;;;;;;;18.93;17.90;;;;;;;21.26;100.00;102052.10;1946365;72;31081;-74
2022/07/27 10:06:52;;;;;;;17.50;16.60;;;;;;;21.70;100.00;102048.74;2015289;71;31088;-73
2022/07/27 10:12:30;;;;;;;17.30;16.37;;;;;;;21.85;100.00;102046.02;2060778;69;30551;-73
2022/07/27 10:15:00;;;;;;;17.20;16.00;;;;;;;21.84;100.00;102049.42;2015121;70;24132;-73
2022/07/27 10:17:31;;;;;;;17.35;16.37;;;;;;;21.75;100.00;102047.17;1935355;73;24604;-73
2022/07/27 10:20:07;;;;;;;17.15;16.00;;;;;;;21.83;100.00;102053.99;2017325;70;24673;-74
2022/07/27 10:22:53;;;;;;;16.87;15.85;;;;;;;21.77;100.00;102053.34;2018773;70;24157;-73
2022/07/27 10:25:25;;;;;;;16.10;15.15;;;;;;;21.83;100.00;102051.16;2018291;71;24636;-74
2022/07/27 10:31:37;;;;;;;16.13;14.97;;;;;;;21.80;100.00;102046.44;2011523;71;31492;-73
2022/07/27 10:37:27;;;;;;;16.10;15.00;;;;;;;21.79;100.00;102039.11;2018450;71;30905;-72
2022/07/27 10:43:20;;;;;;;14.87;14.07;;;;;;;21.82;100.00;102042.45;2015053;71;30911;-75
2022/07/27 10:49:20;;;;;;;14.47;13.43;;;;;;;21.75;100.00;102026.80;2015116;71;30899;-74
2022/07/27 10:55:07;;;;;;;13.62;12.93;;;;;;;22.08;100.00;102029.13;2004010;71;31023;-75
2022/07/27 11:01:06;;;;;;;14.07;13.08;;;;;;;22.12;100.00;102030.16;1989356;71;30854;-75
2022/07/27 11:06:59;;;;;;;13.28;12.53;;;;;;;22.21;100.00;102025.28;2014964;71;30885;-75
2022/07/27 11:12:53;;;;;;;13.20;12.45;;;;;;;22.26;100.00;102020.87;2011412;71;30892;-75
2022/07/27 11:18:40;;;;;;;11.88;11.18;;;;;;;22.28;100.00;102016.30;2016706;71;30886;-75
2022/07/27 11:24:33;;;;;;;12.40;11.70;;;;;;;22.28;100.00;102010.05;2011480;71;30927;-73
2022/07/27 11:30:28;;;;;;;11.43;10.93;;;;;;;22.32;100.00;102011.62;2013206;71;30873;-75
2022/07/27 11:36:16;;;;;;;10.90;10.32;;;;;;;21.95;100.00;102013.19;2011680;71;30879;-74
2022/07/27 11:42:03;;;;;;;11.12;10.43;;;;;;;21.95;100.00;102005.50;2013110;71;30877;-75
2022/07/27 11:47:59;;;;;;;10.68;9.95;;;;;;;22.00;100.00;102004.50;2010132;71;30895;-74
2022/07/27 11:53:45;;;;;;;11.57;10.90;;;;;;;22.13;100.00;102002.91;1994917;71;30919;-75
2022/07/27 11:59:39;;;;;;;10.88;10.32;;;;;;;22.22;100.00;102002.89;2004131;71;31009;-74
2022/07/27 12:05:24;;;;;;;11.40;10.60;;;;;;;22.41;100.00;101994.03;2006131;71;30841;-75
2022/07/27 12:11:15;;;;;;;10.98;10.38;;;;;;;22.31;100.00;101995.22;2009671;71;31498;-76
2022/07/27 12:17:23;;;;;;;11.08;10.38;;;;;;;22.21;100.00;101996.40;2011443;71;31437;-75
2022/07/27 12:23:15;;;;;;;11.68;11.08;;;;;;;21.76;100.00;101986.61;2006536;70;30875;-74
2022/07/27 12:29:10;;;;;;;11.13;10.53;;;;;;;21.88;100.00;101985.35;2008716;71;31389;-76
2022/07/27 12:35:03;;;;;;;11.33;10.83;;;;;;;21.71;100.00;101977.72;2018989;71;31379;-75
2022/07/27 12:40:50;;;;;;;11.30;10.60;;;;;;;21.85;100.00;101976.13;2008357;71;30995;-77
2022/07/27 12:46:37;;;;;;;10.95;10.45;;;;;;;21.95;100.00;101970.75;2011480;71;31477;-76
2022/07/27 12:52:31;;;;;;;10.28;9.58;;;;;;;21.72;100.00;101962.41;1998993;71;31392;-79
2022/07/27 12:58:15;;;;;;;10.73;10.13;;;;;;;21.77;100.00;101961.41;2002684;71;30820;-75
2022/07/27 13:03:58;;;;;;;10.23;9.60;;;;;;;21.65;100.00;101956.41;2011725;71;30879;-74
2022/07/27 13:09:43;;;;;;;10.78;10.28;;;;;;;21.53;100.00;101947.77;2000291;71;30956;-74
2022/07/27 13:15:28;;;;;;;10.10;9.50;;;;;;;21.79;100.00;101949.17;2001136;71;31364;-76
2022/07/27 13:21:12;;;;;;;10.00;9.30;;;;;;;21.85;100.00;101951.25;2018672;71;30928;-74
2022/07/27 13:26:59;;;;;;;9.73;9.13;;;;;;;21.91;100.00;101946.48;2011343;71;30949;-74
2022/07/27 13:32:45;;;;;;;10.20;9.50;;;;;;;21.97;100.00;101936.70;2003003;71;30870;-74
2022/07/27 13:38:32;;;;;;;10.60;9.98;;;;;;;21.95;100.00;101940.43;2049235;69;31291;-77
2022/07/27 13:44:21;;;;;;;10.75;9.80;;;;;;;22.04;100.00;101942.66;2008715;71;31484;-78
2022/07/27 13:50:11;;;;;;;10.40;9.70;;;;;;;22.06;100.00;101945.17;2009818;71;31477;-79
2022/07/27 13:55:56;;;;;;;10.23;9.70;;;;;;;21.95;100.00;101932.55;2008352;71;31423;-76
2022/07/27 14:01:40;;;;;;;10.45;9.85;;;;;;;21.88;100.00;101920.86;2015138;71;31426;-76
2022/07/27 14:07:25;;;;;;;10.18;9.58;;;;;;;22.09;100.00;101935.41;2015045;71;30893;-77
2022/07/27 14:13:11;;;;;;;10.43;9.90;;;;;;;21.60;100.00;101929.73;2017139;71;30993;-74
2022/07/27 14:18:57;;;;;;;10.90;10.20;;;;;;;21.44;100.00;101936.20;2017182;71;30938;-74
2022/07/27 14:24:42;;;;;;;14.53;13.68;;;;;;;21.16;100.00;101930.05;2008522;71;31408;-74
2022/07/27 14:30:26;;;;;;;18.50;17.50;;;;;;;20.73;100.00;101938.39;2010024;71;30957;-74
2022/07/27 14:36:12;;;;;;;20.97;19.87;;;;;;;20.40;100.00;101931.72;1995474;71;30921;-72
2022/07/27 14:41:56;;;;;;;25.20;23.87;;;;;;;20.48;100.00;101933.48;2010327;71;31440;-77
2022/07/27 14:47:41;;;;;;;26.77;25.43;;;;;;;20.34;100.00;101922.30;1997099;71;30805;-77
2022/07/27 14:53:26;;;;;;;25.60;24.40;;;;;;;20.36;100.00;101916.60;1998767;71;31438;-75
2022/07/27 14:59:11;;;;;;;26.27;25.07;;;;;;;20.21;100.00;101910.50;2010278;71;31339;-75
2022/07/27 15:04:56;;;;;;;22.47;21.37;;;;;;;20.39;100.00;101909.45;2006434;71;31561;-77
2022/07/27 15:10:40;;;;;;;20.47;19.47;;;;;;;20.53;100.00;101899.47;2006403;71;30904;-76
2022/07/27 15:16:24;;;;;;;18.47;17.67;;;;;;;20.56;100.00;101885.53;2016732;71;31506;-77
2022/07/27 15:22:08;;;;;;;18.30;17.40;;;;;;;20.77;100.00;101882.34;1998636;71;31002;-75
2022/07/27 15:27:53;;;;;;;18.77;17.63;;;;;;;20.73;100.00;101875.69;2010258;71;30904;-75
2022/07/27 15:33:37;;;;;;;16.07;15.30;;;;;;;20.83;100.00;101877.37;2007796;71;31534;-77
2022/07/27 15:39:22;;;;;;;16.00;15.17;;;;;;;20.88;100.00;101870.97;2017332;71;31008;-76
2022/07/27 15:45:08;;;;;;;14.60;13.73;;;;;;;20.97;100.00;101868.73;2015344;71;31448;-77
2022/07/27 15:50:57;;;;;;;14.33;13.50;;;;;;;21.06;100.00;101856.86;2014991;71;30962;-74
2022/07/27 15:56:41;;;;;;;14.47;13.67;;;;;;;21.05;100.00;101860.27;2015133;71;30944;-77
2022/07/27 16:02:27;;;;;;;15.43;14.70;;;;;;;21.01;100.00;101850.79;2010057;71;31568;-74
2022/07/27 16:08:12;;;;;;;16.90;16.10;;;;;;;20.74;100.00;101848.28;2011516;71;31423;-76
2022/07/27 16:13:56;;;;;;;18.40;17.37;;;;;;;20.57;100.00;101846.84;2004142;71;31486;-76
2022/07/27 16:19:41;;;;;;;16.53;15.60;;;;;;;20.68;100.00;101841.95;2000976;71;30843;-76
2022/07/27 16:25:26;;;;;;;17.57;16.48;;;;;;;20.63;100.00;101834.21;1994996;71;33375;-78
2022/07/27 16:31:13;;;;;;;19.53;18.43;;;;;;;20.59;100.00;101824.74;2013659;71;30959;-78
2022/07/27 16:36:59;;;;;;;17.93;16.73;;;;;;;20.52;100.00;101828.06;2018933;71;31408;-77
2022/07/27 16:42:43;;;;;;;15.63;14.93;;;;;;;20.81;100.00;101834.50;1995393;71;30910;-73
2022/07/27 16:48:27;;;;;;;13.72;13.03;;;;;;;20.90;100.00;101826.87;1991962;71;31053;-74
2022/07/27 16:54:13;;;;;;;14.70;13.83;;;;;;;20.68;100.00;101834.06;1995058;71;30949;-74
2022/07/27 16:59:58;;;;;;;15.40;14.70;;;;;;;20.39;100.00;101827.61;2002545;71;31507;-74
2022/07/27 17:05:43;;;;;;;16.13;15.40;;;;;;;20.29;100.00;101822.23;2009613;71;31006;-76
2022/07/27 17:11:27;;;;;;;15.83;15.03;;;;;;;20.17;100.00;101817.80;1997081;71;31337;-76
2022/07/27 17:17:11;;;;;;;14.63;13.73;;;;;;;20.20;100.00;101807.25;2016597;71;31020;-76
2022/07/27 17:22:55;;;;;;;14.70;13.80;;;;;;;20.18;100.00;101808.17;2005780;71;30957;-76
2022/07/27 17:28:41;;;;;;;15.37;14.47;;;;;;;20.35;100.00;101809.09;2017155;71;31542;-76
2022/07/27 17:34:26;;;;;;;13.70;12.90;;;;;;;20.35;100.00;101812.50;2004334;71;31434;-74
2022/07/27 17:40:12;;;;;;;13.43;12.73;;;;;;;20.57;100.00;101807.32;2008223;71;31006;-77
2022/07/27 17:45:57;;;;;;;15.40;14.60;;;;;;;20.25;100.00;101814.16;1998690;71;30945;-76
2022/07/27 17:51:42;;;;;;;19.67;18.67;;;;;;;20.13;100.00;101809.16;2009761;71;30921;-76
2022/07/27 17:57:26;;;;;;;20.73;19.63;;;;;;;19.77;100.00;101806.50;2009728;71;31111;-73
2022/07/27 18:03:11;;;;;;;21.63;20.53;;;;;;;19.73;100.00;101804.08;2006407;70;30868;-74
2022/07/27 18:08:55;;;;;;;23.93;22.73;;;;;;;19.68;100.00;101798.57;2016891;71;31436;-75
2022/07/27 18:15:45;;;;;;;22.10;21.00;;;;;;;19.70;100.00;101799.09;2011263;71;31448;-74
2022/07/27 18:20:27;;;;;;;24.47;23.20;;;;;;;19.62;100.00;101801.30;2009974;71;30877;-74
2022/07/27 18:26:11;;;;;;;26.80;25.40;;;;;;;19.69;100.00;101803.06;2004657;71;31024;-74
2022/07/27 18:31:56;;;;;;;25.33;23.93;;;;;;;19.54;100.00;101803.48;2006676;71;33328;-75
2022/07/27 18:37:40;;;;;;;25.37;24.17;;;;;;;19.58;100.00;101802.26;2006237;71;30880;-72
2022/07/27 18:43:26;;;;;;;31.40;29.70;;;;;;;19.34;100.00;101799.77;2011887;71;30932;-72
2022/07/27 18:49:10;;;;;;;42.07;39.87;;;;;;;19.34;100.00;101806.21;2000869;71;30838;-73
2022/07/27 18:54:55;;;;;;;33.00;31.30;;;;;;;19.41;100.00;101805.20;2008290;71;30866;-74
2022/07/27 19:00:40;;;;;;;25.30;24.10;;;;;;;19.66;100.00;101805.12;2004418;71;31323;-75
2022/07/27 19:06:24;;;;;;;22.93;21.73;;;;;;;19.74;100.00;101803.50;2015499;71;31438;-74
2022/07/27 19:12:10;;;;;;;19.83;18.83;;;;;;;19.70;100.00;101797.69;1992046;71;30873;-74
2022/07/27 19:17:54;;;;;;;16.60;15.90;;;;;;;19.81;100.00;101789.79;2000575;71;31412;-75
2022/07/27 19:23:38;;;;;;;16.87;15.97;;;;;;;19.80;100.00;101783.89;2011825;71;31022;-76
2022/07/27 19:29:23;;;;;;;15.90;15.20;;;;;;;19.74;100.00;101788.83;2016882;71;31438;-75
2022/07/27 19:35:08;;;;;;;14.17;13.47;;;;;;;19.71;100.00;101790.90;2006414;70;31444;-75
2022/07/27 19:40:53;;;;;;;15.03;14.43;;;;;;;19.73;100.00;101794.78;1997334;71;31437;-76
2022/07/27 19:46:39;;;;;;;15.47;14.67;;;;;;;19.63;100.00;101799.31;2009474;71;33408;-76
2022/07/27 19:52:23;;;;;;;13.97;13.37;;;;;;;19.65;100.00;101806.84;2003917;71;31387;-74
2022/07/27 19:58:08;;;;;;;13.53;12.93;;;;;;;19.63;100.00;101814.24;2006188;71;32931;-75
2022/07/27 20:03:52;;;;;;;12.43;11.90;;;;;;;19.72;100.00;101815.12;2005857;71;31375;-76
2022/07/27 20:09:37;;;;;;;13.90;13.10;;;;;;;19.68;100.00;101819.72;2000296;71;30893;-75
2022/07/27 20:15:22;;;;;;;13.40;12.80;;;;;;;19.38;100.00;101821.32;1991622;71;31006;-76
2022/07/27 20:21:06;;;;;;;13.60;13.00;;;;;;;19.40;100.00;101818.19;1998749;71;31062;-75
2022/07/27 20:26:50;;;;;;;14.33;13.67;;;;;;;19.40;100.00;101826.64;1994986;71;30979;-76
2022/07/27 20:32:35;;;;;;;13.03;12.33;;;;;;;19.43;100.00;101833.91;2017320;71;31061;-76
2022/07/27 20:38:20;;;;;;;13.10;12.60;;;;;;;19.25;100.00;101839.16;2013174;71;30943;-78
2022/07/27 20:44:05;;;;;;;11.13;10.53;;;;;;;19.22;100.00;101841.75;2010205;71;31413;-78
2022/07/27 20:49:50;;;;;;;11.07;10.40;;;;;;;19.30;100.00;101833.37;2009662;71;30921;-78
2022/07/27 20:55:34;;;;;;;9.80;9.40;;;;;;;19.41;100.00;101838.18;2007920;71;30904;-77
2022/07/27 21:01:19;;;;;;;9.83;9.43;;;;;;;19.35;100.00;101838.88;2018633;71;33404;-78
2022/07/27 21:07:04;;;;;;;10.40;9.80;;;;;;;19.21;100.00;101835.89;2018665;70;30957;-75
2022/07/27 21:12:48;;;;;;;10.73;10.33;;;;;;;19.22;100.00;101838.94;2001075;71;31327;-77
2022/07/27 21:18:32;;;;;;;10.60;9.90;;;;;;;19.20;100.00;101838.44;1995299;71;31019;-79
2022/07/27 21:24:19;;;;;;;11.03;10.53;;;;;;;19.16;100.00;101841.64;2006424;71;30954;-76
2022/07/27 21:30:04;;;;;;;11.13;10.57;;;;;;;18.95;100.00;101845.52;2008301;71;31363;-77
2022/07/27 21:35:48;;;;;;;9.93;9.43;;;;;;;18.83;100.00;101847.46;2016851;71;31477;-78
2022/07/27 21:41:32;;;;;;;10.20;9.80;;;;;;;18.76;100.00;101844.25;2009323;70;30954;-77
2022/07/27 21:47:16;;;;;;;10.87;10.47;;;;;;;18.71;100.00;101850.00;2015103;71;30914;-79
2022/07/27 21:53:01;;;;;;;10.60;10.03;;;;;;;18.78;100.00;101851.83;2013117;71;30936;-79
2022/07/27 21:58:46;;;;;;;11.10;10.60;;;;;;;18.74;100.00;101854.18;2009374;71;32987;-78
2022/07/27 22:04:34;;;;;;;10.83;10.43;;;;;;;18.75;100.00;101852.44;2011649;71;30990;-77
2022/07/27 22:10:18;;;;;;;10.77;10.27;;;;;;;18.63;100.00;101850.17;2004842;71;30811;-77
2022/07/27 22:16:03;;;;;;;10.97;10.43;;;;;;;18.60;100.00;101852.22;1997166;71;30911;-77
2022/07/27 22:21:47;;;;;;;10.40;10.00;;;;;;;18.55;100.00;101859.93;2010117;71;31311;-79
2022/07/27 22:27:34;;;;;;;10.20;9.80;;;;;;;18.53;100.00;101858.83;2014949;71;31454;-77
2022/07/27 22:33:20;;;;;;;10.83;10.30;;;;;;;18.39;100.00;101858.56;2006576;71;31382;-79
2022/07/27 22:39:04;;;;;;;10.67;10.03;;;;;;;18.24;100.00;101851.83;2010275;71;31379;-77
2022/07/27 22:44:49;;;;;;;11.20;10.57;;;;;;;18.26;100.00;101852.37;2011940;71;30805;-79
2022/07/27 22:50:33;;;;;;;10.43;10.00;;;;;;;18.26;100.00;101847.58;1997242;71;30866;-77
2022/07/27 22:56:17;;;;;;;10.60;9.90;;;;;;;18.31;100.00;101843.83;2015115;71;30990;-78
2022/07/27 23:02:02;;;;;;;11.13;10.57;;;;;;;18.25;100.00;101841.69;2016850;71;30899;-78
2022/07/27 23:07:47;;;;;;;11.00;10.60;;;;;;;18.18;100.00;101839.27;1997182;70;32755;-78
2022/07/27 23:13:33;;;;;;;10.80;10.30;;;;;;;18.17;100.00;101843.25;2013446;71;31461;-77
2022/07/27 23:19:18;;;;;;;11.87;11.27;;;;;;;18.10;100.00;101824.53;1997175;71;30815;-77
2022/07/27 23:25:02;;;;;;;12.13;11.50;;;;;;;17.84;100.00;101836.02;2018799;71;31432;-77
2022/07/27 23:30:46;;;;;;;12.40;11.80;;;;;;;17.87;100.00;101843.02;2000595;71;31388;-78
2022/07/27 23:36:30;;;;;;;12.90;12.20;;;;;;;17.72;100.00;101842.14;1997463;71;31002;-78
2022/07/27 23:42:15;;;;;;;12.70;12.20;;;;;;;17.61;100.00;101844.05;2017129;71;31497;-78
2022/07/27 23:47:59;;;;;;;13.17;12.47;;;;;;;17.75;100.00;101836.50;2011725;70;32962;-78
2022/07/27 23:53:43;;;;;;;14.80;14.10;;;;;;;17.72;100.00;101832.31;1995494;71;30916;-77
2022/07/27 23:59:27;;;;;;;15.07;14.43;;;;;;;17.59;100.00;101833.68;1995278;71;30988;-77
